Bellview, West Virginia
Current Conditions -  °F | °C
As of 9:53 PM on Saturday 22 Nov 2014 (Local Time) from KCKB Reporting Station
Overcast Overcast  
Wind Chill: 48°   Ceiling: 10000
Heat Index: 48°   Visibility: 10mi
Dew Point: 29°   Wind: 3mph
Humidity: 48%   Direction: 180°S
Pressure: 30.16"   Gusts: NA
Location:  39.4675°N, 80.064°W
Report Text: KCKB 230253Z 18003KT 10SM SCT080 OVC100 09/M02 A3016 RMK AO2 SLP215 T00891017 55003
Loading
Personal Weather Stations






























Interactive Weather Map New forecast layout! Learn more

10-Day Weather Forecast

Advertisements
Track Severe Weather on mobile